Antioco — IYQR — position and weather

sailwx.info

Track history (hours):
 
Tides and Currents Weather Stations Pressure Air Temp Water Temp Dewpoint Dewpoint Depression Visibility Wind Speed Wind Dir Waves Ship Positions

Antioco

Last reported at 2017-Dec-11 16:25 UTC. Time now 2017-Dec-12 20:08 UTC.
Position N 38°28' E 014°58'.

Length 31 m; draft 4.1 m.

Type: Ship. MMSI: 247132200.

Date/timePositionNaut miles runAvg speedWind from/ knotsBaromVisibWave heightAir tempDewpointWater temp
2017-Dec-11 16:25N 38°28' E 014°58'3 6.1
2017-Dec-11 15:53N 38°25' E 014°58'1131.0
2017-Dec-11 15:30N 38°22' E 015°12'917.2
2017-Dec-11 15:00N 38°13' E 015°14'510.6
2017-Dec-11 14:30N 38°18' E 015°13'1423.4
2017-Dec-11 13:56N 38°25' E 014°58'6 5.5
2017-Dec-11 12:46N 38°32' E 014°57'410.0
2017-Dec-11 12:25N 38°28' E 014°58'716.9
2017-Dec-11 12:00N 38°24' E 015°04'1427.2
2017-Dec-11 11:31N 38°13' E 015°16'1 1.9
2017-Dec-11 11:01N 38°13' E 015°14'0 0.4
2017-Dec-11 10:31N 38°13' E 015°15'0 0.0
2017-Dec-11 10:01N 38°13' E 015°15'0 0.1
2017-Dec-11 09:31N 38°13' E 015°15'1224.0
2017-Dec-11 09:00N 38°22' E 015°05'810.8
2017-Dec-11 08:14N 38°28' E 014°58'2 2.6
2017-Dec-11 07:19N 38°26' E 014°56'2 7.5
2017-Dec-11 07:00N 38°28' E 014°58'2 1.1
2017-Dec-11 05:05N 38°26' E 014°57'2 0.2
2017-Dec-10 17:02N 38°28' E 014°57'115.7
2017-Dec-10 16:59N 38°28' E 014°59'1 1.2
2017-Dec-10 16:21N 38°29' E 014°59'4 8.1
2017-Dec-10 15:52N 38°25' E 014°58'1130.9
2017-Dec-10 15:30N 38°20' E 015°11'815.6
2017-Dec-10 15:01N 38°13' E 015°14'1 2.6
2017-Dec-10 14:31N 38°14' E 015°16'1427.0
2017-Dec-10 13:58N 38°23' E 015°02'612.7
2017-Dec-10 13:30N 38°28' E 014°58'1 1.4
2017-Dec-10 12:31N 38°29' E 014°59'211.4
2017-Dec-10 12:22N 38°28' E 014°57'410.6
2017-Dec-10 12:01N 38°25' E 014°60'1530.5
2017-Dec-10 11:30N 38°17' E 015°16'4 7.6
2017-Dec-10 11:00N 38°13' E 015°14'0 0.4
2017-Dec-10 10:30N 38°13' E 015°15'0 0.0
2017-Dec-10 10:01N 38°13' E 015°15'0 0.5
2017-Dec-10 09:30N 38°13' E 015°15'1224.8
2017-Dec-10 09:00N 38°23' E 015°05'811.4
2017-Dec-10 08:18N 38°28' E 014°58'2 2.2
2017-Dec-10 07:19N 38°26' E 014°57'2 0.1
2017-Dec-09 13:54N 38°29' E 014°58'1 2.3
2017-Dec-09 13:29N 38°28' E 014°58'1 0.8
2017-Dec-09 12:27N 38°28' E 014°57'817.7
2017-Dec-09 12:00N 38°24' E 015°05'1326.5
2017-Dec-09 11:30N 38°13' E 015°15'0 0.8
2017-Dec-09 11:00N 38°13' E 015°14'0 0.4
2017-Dec-09 10:30N 38°13' E 015°15'0 0.4
2017-Dec-09 10:00N 38°13' E 015°14'0 1.0
2017-Dec-09 09:31N 38°13' E 015°15'1425.0
2017-Dec-09 08:57N 38°24' E 015°04'710.9
2017-Dec-09 08:19N 38°28' E 014°57'0 0.1
2017-Dec-09 07:05N 38°28' E 014°57'220.0
2017-Dec-09 07:00N 38°29' E 014°59'1 0.1
2017-Dec-08 16:58N 38°28' E 014°58'3 5.7
2017-Dec-08 16:26N 38°31' E 014°58'612.7
2017-Dec-08 15:59N 38°26' E 014°59'5 2.4
2017-Dec-08 14:02N 38°23' E 015°03'231.7
2017-Dec-08 14:00N 38°24' E 015°02'511.0
2017-Dec-08 13:30N 38°28' E 014°58'1 0.9
2017-Dec-08 12:29N 38°28' E 014°57'612.5
2017-Dec-08 12:00N 38°24' E 015°02'1529.8
2017-Dec-08 11:31N 38°14' E 015°17'  
Track history (hours):
 
Tides and Currents Weather Stations Pressure Air Temp Water Temp Dewpoint Dewpoint Depression Visibility Wind Speed Wind Dir Waves Ship Positions

Antioco

Last reported at 2017-Dec-11 16:25 UTC. Time now 2017-Dec-12 20:08 UTC.
Position N 38°28' E 014°58'.

Length 31 m; draft 4.1 m.

Type: Ship. MMSI: 247132200.

Date/timePositionNaut miles runAvg speedWind from/ knotsBaromVisibWave heightAir tempDewpointWater temp
2017-Dec-11 16:25N 38°28' E 014°58'3 6.1
2017-Dec-11 15:53N 38°25' E 014°58'1131.0
2017-Dec-11 15:30N 38°22' E 015°12'917.2
2017-Dec-11 15:00N 38°13' E 015°14'510.6
2017-Dec-11 14:30N 38°18' E 015°13'1423.4
2017-Dec-11 13:56N 38°25' E 014°58'6 5.5
2017-Dec-11 12:46N 38°32' E 014°57'410.0
2017-Dec-11 12:25N 38°28' E 014°58'716.9
2017-Dec-11 12:00N 38°24' E 015°04'1427.2
2017-Dec-11 11:31N 38°13' E 015°16'1 1.9
2017-Dec-11 11:01N 38°13' E 015°14'0 0.4
2017-Dec-11 10:31N 38°13' E 015°15'0 0.0
2017-Dec-11 10:01N 38°13' E 015°15'0 0.1
2017-Dec-11 09:31N 38°13' E 015°15'1224.0
2017-Dec-11 09:00N 38°22' E 015°05'810.8
2017-Dec-11 08:14N 38°28' E 014°58'2 2.6
2017-Dec-11 07:19N 38°26' E 014°56'2 7.5
2017-Dec-11 07:00N 38°28' E 014°58'2 1.1
2017-Dec-11 05:05N 38°26' E 014°57'2 0.2
2017-Dec-10 17:02N 38°28' E 014°57'115.7
2017-Dec-10 16:59N 38°28' E 014°59'1 1.2
2017-Dec-10 16:21N 38°29' E 014°59'4 8.1
2017-Dec-10 15:52N 38°25' E 014°58'1130.9
2017-Dec-10 15:30N 38°20' E 015°11'815.6
2017-Dec-10 15:01N 38°13' E 015°14'1 2.6
2017-Dec-10 14:31N 38°14' E 015°16'1427.0
2017-Dec-10 13:58N 38°23' E 015°02'612.7
2017-Dec-10 13:30N 38°28' E 014°58'1 1.4
2017-Dec-10 12:31N 38°29' E 014°59'211.4
2017-Dec-10 12:22N 38°28' E 014°57'410.6
2017-Dec-10 12:01N 38°25' E 014°60'1530.5
2017-Dec-10 11:30N 38°17' E 015°16'4 7.6
2017-Dec-10 11:00N 38°13' E 015°14'0 0.4
2017-Dec-10 10:30N 38°13' E 015°15'0 0.0
2017-Dec-10 10:01N 38°13' E 015°15'0 0.5
2017-Dec-10 09:30N 38°13' E 015°15'1224.8
2017-Dec-10 09:00N 38°23' E 015°05'811.4
2017-Dec-10 08:18N 38°28' E 014°58'2 2.2
2017-Dec-10 07:19N 38°26' E 014°57'2 0.1
2017-Dec-09 13:54N 38°29' E 014°58'1 2.3
2017-Dec-09 13:29N 38°28' E 014°58'1 0.8
2017-Dec-09 12:27N 38°28' E 014°57'817.7
2017-Dec-09 12:00N 38°24' E 015°05'1326.5
2017-Dec-09 11:30N 38°13' E 015°15'0 0.8
2017-Dec-09 11:00N 38°13' E 015°14'0 0.4
2017-Dec-09 10:30N 38°13' E 015°15'0 0.4
2017-Dec-09 10:00N 38°13' E 015°14'0 1.0
2017-Dec-09 09:31N 38°13' E 015°15'1425.0
2017-Dec-09 08:57N 38°24' E 015°04'710.9
2017-Dec-09 08:19N 38°28' E 014°57'0 0.1
2017-Dec-09 07:05N 38°28' E 014°57'220.0
2017-Dec-09 07:00N 38°29' E 014°59'1 0.1
2017-Dec-08 16:58N 38°28' E 014°58'3 5.7
2017-Dec-08 16:26N 38°31' E 014°58'612.7
2017-Dec-08 15:59N 38°26' E 014°59'5 2.4
2017-Dec-08 14:02N 38°23' E 015°03'231.7
2017-Dec-08 14:00N 38°24' E 015°02'511.0
2017-Dec-08 13:30N 38°28' E 014°58'1 0.9
2017-Dec-08 12:29N 38°28' E 014°57'612.5
2017-Dec-08 12:00N 38°24' E 015°02'1529.8
2017-Dec-08 11:31N 38°14' E 015°17'  

Dump ship's entire track history